Time;durP1;ratioP1;P1;durP2;ratioP2;P2;SDS_P1;SDS_P2;PMS_P1;PMS_P2;Temp;Humidity;BMP_temperature;BMP_pressure;BME280_temperature;BME280_humidity;BME280_pressure;Samples;Min_cycle;Max_cycle;Signal;HPM_P1;HPM_P2
2024/01/16 00:02:12;;;;;;;1.13;1.13;;;;;;;2.09;nan;98088.75;5111557;28;20222;-69
2024/01/16 00:04:40;;;;;;;1.40;1.40;;;;;;;2.11;nan;98101.34;5111461;28;20260;-69
2024/01/16 00:07:07;;;;;;;1.33;1.33;;;;;;;2.11;nan;98081.97;5110636;28;20305;-69
2024/01/16 00:09:34;;;;;;;2.37;2.20;;;;;;;2.10;nan;98085.34;5090382;28;20200;-69
2024/01/16 00:12:02;;;;;;;1.40;1.40;;;;;;;2.12;nan;98082.81;5091389;28;20245;-69
2024/01/16 00:14:29;;;;;;;1.50;1.50;;;;;;;2.11;nan;98099.66;5096974;28;20195;-69
2024/01/16 00:16:55;;;;;;;3.50;3.33;;;;;;;2.13;nan;98103.88;5089676;28;20588;-70
2024/01/16 00:19:22;;;;;;;2.03;2.03;;;;;;;2.07;nan;98084.56;5091113;28;20265;-69
2024/01/16 00:21:51;;;;;;;3.73;3.53;;;;;;;2.13;nan;98100.47;5090968;28;20191;-69
2024/01/16 00:24:18;;;;;;;2.40;2.30;;;;;;;2.17;nan;98097.88;5090756;28;20652;-70
2024/01/16 00:26:44;;;;;;;1.40;1.30;;;;;;;2.10;nan;98100.50;5090215;28;20230;-69
2024/01/16 00:29:12;;;;;;;0.83;0.83;;;;;;;2.07;nan;98099.72;5090527;28;20191;-69
2024/01/16 00:31:38;;;;;;;2.17;2.07;;;;;;;2.02;nan;98104.88;5093983;28;20207;-69
2024/01/16 00:34:05;;;;;;;0.83;0.83;;;;;;;2.01;nan;98102.38;5090591;28;20191;-69
2024/01/16 00:36:32;;;;;;;2.27;2.17;;;;;;;2.01;nan;98095.63;5091071;28;20625;-69
2024/01/16 00:39:00;;;;;;;2.23;2.03;;;;;;;2.02;nan;98101.50;5090812;28;20203;-69
2024/01/16 00:41:27;;;;;;;1.60;1.60;;;;;;;2.04;nan;98109.88;5090944;28;20200;-69
2024/01/16 00:43:53;;;;;;;2.10;2.10;;;;;;;2.06;nan;98109.03;5095520;28;20222;-69
2024/01/16 00:46:20;;;;;;;3.37;3.13;;;;;;;2.07;nan;98107.31;5102676;28;20194;-69
2024/01/16 00:48:47;;;;;;;1.53;1.53;;;;;;;2.10;nan;98099.69;5111047;28;20727;-69
2024/01/16 00:51:14;;;;;;;3.00;2.03;;;;;;;2.13;nan;98088.69;5103618;28;20210;-69
2024/01/16 00:53:42;;;;;;;2.27;2.10;;;;;;;2.16;nan;98078.53;5110154;28;20190;-69
2024/01/16 00:56:10;;;;;;;1.53;0.93;;;;;;;2.13;nan;98073.53;5095912;28;20196;-69
2024/01/16 00:58:37;;;;;;;2.60;2.50;;;;;;;2.10;nan;98065.13;5098433;28;20203;-69
2024/01/16 01:01:04;;;;;;;1.23;1.23;;;;;;;2.10;nan;98061.78;5095544;28;20249;-69
2024/01/16 01:03:31;;;;;;;0.80;0.80;;;;;;;2.11;nan;98061.75;5105378;28;20698;-69
2024/01/16 01:05:58;;;;;;;1.90;1.60;;;;;;;2.13;nan;98058.38;5102614;28;20256;-69
2024/01/16 01:08:25;;;;;;;1.13;1.13;;;;;;;2.11;nan;98066.81;5102953;28;20199;-69
2024/01/16 01:10:51;;;;;;;9.87;1.40;;;;;;;2.10;nan;98065.13;5099517;28;20202;-69
2024/01/16 01:13:20;;;;;;;5.73;1.53;;;;;;;2.10;nan;98071.91;5105243;28;20194;-69
2024/01/16 01:15:46;;;;;;;1.30;1.30;;;;;;;2.07;nan;98060.13;5110452;28;20226;-69
2024/01/16 01:18:13;;;;;;;2.03;2.03;;;;;;;2.05;nan;98051.75;5110634;28;20194;-69
2024/01/16 01:20:40;;;;;;;6.40;2.10;;;;;;;1.92;nan;98030.09;5112674;28;20685;-69
2024/01/16 01:23:06;;;;;;;1.30;1.30;;;;;;;2.01;nan;98050.13;5106141;28;20276;-69
2024/01/16 01:25:33;;;;;;;1.70;1.70;;;;;;;1.97;nan;98043.47;5094061;28;20256;-68
2024/01/16 01:28:00;;;;;;;2.03;2.03;;;;;;;1.83;nan;98029.41;5094194;28;20211;-69
2024/01/16 01:30:28;;;;;;;2.20;2.07;;;;;;;1.83;nan;98029.41;5099924;28;20654;-68
2024/01/16 01:32:54;;;;;;;5.23;3.60;;;;;;;1.78;nan;98033.72;5109613;28;20264;-68
2024/01/16 01:35:21;;;;;;;1.33;1.33;;;;;;;1.79;nan;98033.69;5093372;28;20663;-68
2024/01/16 01:37:48;;;;;;;2.77;2.57;;;;;;;1.75;nan;98042.16;5100125;28;20199;-68
2024/01/16 01:40:15;;;;;;;2.50;2.37;;;;;;;1.71;nan;98050.69;5093678;28;20203;-68
2024/01/16 01:42:42;;;;;;;4.13;1.60;;;;;;;1.69;nan;98061.63;5093907;28;20231;-68
2024/01/16 01:45:10;;;;;;;1.67;1.67;;;;;;;1.64;nan;98055.84;5093543;28;20203;-68
2024/01/16 01:47:38;;;;;;;1.30;1.30;;;;;;;1.63;nan;98052.47;5093721;28;20195;-68
2024/01/16 01:50:07;;;;;;;1.40;1.40;;;;;;;1.63;nan;98055.00;5093118;28;20191;-68
2024/01/16 01:52:34;;;;;;;2.33;2.33;;;;;;;1.65;nan;98062.56;5093692;28;20200;-68
2024/01/16 01:55:03;;;;;;;2.40;2.40;;;;;;;1.59;nan;98055.91;5093658;28;20191;-68
2024/01/16 01:57:30;;;;;;;1.73;1.63;;;;;;;1.64;nan;98061.72;5112607;28;20252;-68
2024/01/16 01:59:57;;;;;;;2.53;1.70;;;;;;;1.62;nan;98055.03;5114272;28;20199;-68
2024/01/16 02:02:23;;;;;;;3.30;3.20;;;;;;;1.59;nan;98058.44;5103318;28;20671;-68
2024/01/16 02:04:52;;;;;;;2.23;2.23;;;;;;;1.57;nan;98058.47;5092787;28;20199;-68
2024/01/16 02:07:19;;;;;;;1.73;1.73;;;;;;;1.53;nan;98063.59;5093390;28;20655;-68
2024/01/16 02:09:45;;;;;;;1.63;1.63;;;;;;;1.43;nan;98049.44;5093922;28;20671;-68
2024/01/16 02:12:12;;;;;;;1.57;1.57;;;;;;;1.52;nan;98054.31;5093674;28;20619;-68
2024/01/16 02:14:39;;;;;;;1.77;1.77;;;;;;;1.43;nan;98049.44;5104093;28;20194;-68
2024/01/16 02:17:06;;;;;;;1.33;1.33;;;;;;;1.48;nan;98068.72;5097132;28;20276;-68
2024/01/16 02:19:33;;;;;;;2.37;2.30;;;;;;;1.45;nan;98083.09;5100541;28;20231;-68
2024/01/16 02:22:05;;;;;;;0.70;0.70;;;;;;;1.42;nan;98063.75;5093551;28;20257;-68
2024/01/16 02:24:33;;;;;;;1.93;1.93;;;;;;;1.53;nan;98077.03;5092952;28;20244;-69
2024/01/16 02:27:00;;;;;;;1.27;1.27;;;;;;;1.53;nan;98077.03;5093452;28;20652;-68
2024/01/16 02:29:27;;;;;;;1.73;1.73;;;;;;;1.56;nan;98081.22;5102309;28;20194;-68
2024/01/16 02:31:53;;;;;;;2.30;2.30;;;;;;;1.57;nan;98052.59;5112770;28;20221;-68
2024/01/16 02:34:20;;;;;;;1.57;1.57;;;;;;;1.62;nan;98055.03;5101573;28;20624;-68
2024/01/16 02:36:46;;;;;;;1.00;1.00;;;;;;;1.66;nan;98057.47;5092180;28;20203;-68
2024/01/16 02:39:12;;;;;;;1.40;1.40;;;;;;;1.70;nan;98058.25;5092407;28;20195;-68
2024/01/16 02:41:40;;;;;;;2.30;2.30;;;;;;;1.72;nan;98057.38;5092443;28;20256;-68
2024/01/16 02:44:07;;;;;;;2.17;2.17;;;;;;;1.75;nan;98053.97;5101203;28;20592;-68
2024/01/16 02:46:34;;;;;;;1.50;1.50;;;;;;;1.72;nan;98061.59;5098758;28;20196;-68
2024/01/16 02:49:01;;;;;;;1.30;1.30;;;;;;;1.70;nan;98054.06;5104370;28;20195;-68
2024/01/16 02:51:27;;;;;;;1.33;1.33;;;;;;;1.75;nan;98047.22;5096650;28;20202;-68
2024/01/16 02:53:54;;;;;;;1.70;1.70;;;;;;;1.77;nan;98045.53;5094103;28;20261;-68
2024/01/16 02:56:20;;;;;;;1.77;1.77;;;;;;;1.80;nan;98053.03;5092160;28;20192;-68
2024/01/16 02:58:49;;;;;;;7.47;2.57;;;;;;;1.81;nan;98062.25;5092277;28;20256;-68
2024/01/16 03:01:15;;;;;;;1.37;1.37;;;;;;;1.81;nan;98072.38;5092324;28;20203;-68
2024/01/16 03:03:42;;;;;;;1.60;1.60;;;;;;;1.86;nan;98078.19;5092339;28;20253;-68
2024/01/16 03:06:09;;;;;;;2.60;1.80;;;;;;;1.87;nan;98092.50;5092460;28;20196;-68
2024/01/16 03:08:35;;;;;;;1.13;1.07;;;;;;;1.68;nan;98070.91;5092232;28;20203;-68
2024/01/16 03:11:02;;;;;;;1.20;1.20;;;;;;;1.81;nan;98096.81;5092438;28;20240;-68
2024/01/16 03:13:29;;;;;;;2.17;2.07;;;;;;;1.83;nan;98085.84;5091860;28;20245;-68
2024/01/16 03:15:57;;;;;;;0.93;0.93;;;;;;;1.86;nan;98095.88;5091701;28;20779;-68
2024/01/16 03:18:24;;;;;;;1.63;1.53;;;;;;;1.84;nan;98097.59;5092043;28;20195;-68
2024/01/16 03:20:50;;;;;;;1.40;1.40;;;;;;;1.85;nan;98084.09;5093987;28;20199;-68
2024/01/16 03:23:17;;;;;;;1.43;1.43;;;;;;;1.87;nan;98091.66;5102925;28;20219;-68
2024/01/16 03:25:44;;;;;;;2.07;1.97;;;;;;;1.87;nan;98089.97;5112241;28;20666;-68
2024/01/16 03:28:10;;;;;;;2.50;2.30;;;;;;;1.74;nan;98093.56;5112060;28;20629;-68
2024/01/16 03:30:37;;;;;;;0.90;0.90;;;;;;;1.81;nan;98096.81;5090426;28;20191;-68
2024/01/16 03:33:06;;;;;;;1.30;1.30;;;;;;;1.81;nan;98097.63;5091599;28;20191;-68
2024/01/16 03:35:32;;;;;;;0.87;0.87;;;;;;;1.84;nan;98082.44;5091732;28;20196;-68
2024/01/16 03:37:58;;;;;;;1.17;1.17;;;;;;;1.75;nan;98087.63;5103557;28;20199;-68
2024/01/16 03:40:25;;;;;;;1.00;1.00;;;;;;;1.82;nan;98099.31;5105165;28;20251;-68
2024/01/16 03:42:52;;;;;;;1.93;1.83;;;;;;;1.88;nan;98103.44;5098836;28;20194;-68
2024/01/16 03:45:18;;;;;;;4.70;2.83;;;;;;;1.89;nan;98110.16;5103091;28;20195;-68
2024/01/16 03:47:45;;;;;;;3.00;1.50;;;;;;;1.71;nan;98121.41;5097650;28;20253;-68
2024/01/16 03:50:13;;;;;;;1.40;1.40;;;;;;;1.66;nan;98114.72;5090790;28;20763;-68
2024/01/16 03:52:40;;;;;;;1.83;1.83;;;;;;;1.59;nan;98106.41;5091487;28;20195;-68
2024/01/16 03:55:07;;;;;;;2.37;2.27;;;;;;;1.66;nan;98138.31;5090010;28;20257;-68
2024/01/16 03:57:34;;;;;;;2.03;2.03;;;;;;;1.68;nan;98130.72;5091137;28;20663;-68
2024/01/16 04:00:01;;;;;;;1.50;1.47;;;;;;;1.71;nan;98123.94;5092591;28;20203;-68
2024/01/16 04:02:27;;;;;;;2.60;2.50;;;;;;;1.69;nan;98120.56;5093614;28;20203;-68
2024/01/16 04:04:54;;;;;;;1.07;1.07;;;;;;;1.74;nan;98126.41;5097650;28;20662;-68
2024/01/16 04:07:26;;;;;;;1.77;1.77;;;;;;;1.76;nan;98119.63;5095680;28;20626;-68
2024/01/16 04:09:53;;;;;;;1.20;1.20;;;;;;;1.76;nan;98131.41;5090859;28;20206;-68
2024/01/16 04:12:19;;;;;;;1.97;1.97;;;;;;;1.77;nan;98153.31;5091069;28;20195;-68
2024/01/16 04:14:46;;;;;;;2.50;2.50;;;;;;;1.63;nan;98157.72;5090779;28;20199;-68
2024/01/16 04:17:13;;;;;;;1.43;1.43;;;;;;;1.75;nan;98167.63;5099642;28;20218;-68
2024/01/16 04:19:39;;;;;;;1.17;1.17;;;;;;;1.74;nan;98166.81;5091959;28;20667;-68
2024/01/16 04:22:06;;;;;;;1.20;1.20;;;;;;;1.71;nan;98161.81;5090949;28;20195;-68
2024/01/16 04:24:34;;;;;;;1.47;1.37;;;;;;;1.83;nan;98176.78;5093989;28;20272;-68
2024/01/16 04:27:01;;;;;;;1.00;1.00;;;;;;;1.73;nan;98154.19;5090729;28;20210;-68
2024/01/16 04:29:27;;;;;;;0.83;0.83;;;;;;;1.80;nan;98179.34;5095233;28;20264;-68
2024/01/16 04:31:54;;;;;;;0.80;0.80;;;;;;;1.76;nan;98177.72;5100355;28;20212;-68
2024/01/16 04:34:21;;;;;;;1.80;1.80;;;;;;;1.80;nan;98189.47;5090327;28;20188;-68
2024/01/16 04:36:48;;;;;;;2.10;2.07;;;;;;;1.84;nan;98191.06;5090414;28;20199;-69
2024/01/16 04:39:15;;;;;;;4.17;1.47;;;;;;;1.82;nan;98202.91;5089817;28;20736;-69
2024/01/16 04:41:43;;;;;;;0.87;0.87;;;;;;;1.80;nan;98192.00;5095672;28;20203;-68
2024/01/16 04:44:09;;;;;;;1.80;1.70;;;;;;;1.80;nan;98189.47;5090604;28;20215;-68
2024/01/16 04:46:36;;;;;;;1.10;1.10;;;;;;;1.80;nan;98209.66;5100073;28;20194;-68
2024/01/16 04:49:03;;;;;;;1.80;1.80;;;;;;;1.77;nan;98196.25;5092230;28;20756;-68
2024/01/16 04:51:29;;;;;;;1.83;1.73;;;;;;;1.77;nan;98212.25;5096387;28;20699;-68
2024/01/16 04:53:56;;;;;;;1.17;1.17;;;;;;;1.72;nan;98216.50;5093545;28;20272;-68
2024/01/16 04:56:23;;;;;;;2.30;2.30;;;;;;;1.69;nan;98216.56;5096754;28;20195;-67
2024/01/16 04:58:52;;;;;;;1.77;1.77;;;;;;;1.64;nan;98218.31;5096681;28;20260;-68
2024/01/16 05:01:18;;;;;;;1.43;1.43;;;;;;;1.64;nan;98225.91;5101833;28;20190;-68
2024/01/16 05:03:45;;;;;;;0.80;0.80;;;;;;;1.65;nan;98237.66;5101620;27;20215;-68
2024/01/16 05:06:15;;;;;;;0.80;0.80;;;;;;;1.68;nan;98234.28;5101336;27;20240;-68
2024/01/16 05:08:42;;;;;;;1.77;1.77;;;;;;;1.65;nan;98237.66;5101147;28;20230;-67
2024/01/16 05:11:09;;;;;;;0.97;0.97;;;;;;;1.68;nan;98242.66;5117524;27;20654;-68
2024/01/16 05:13:35;;;;;;;2.03;1.93;;;;;;;1.74;nan;98242.59;5117854;27;20260;-68
2024/01/16 05:16:04;;;;;;;0.80;0.80;;;;;;;1.77;nan;98241.72;5101745;27;20222;-67
2024/01/16 05:18:32;;;;;;;1.10;1.10;;;;;;;1.67;nan;98235.97;5100110;27;20256;-67
2024/01/16 05:20:59;;;;;;;1.27;1.27;;;;;;;1.73;nan;98256.06;5108474;28;20198;-68
2024/01/16 05:23:25;;;;;;;1.07;1.07;;;;;;;1.65;nan;98262.09;5097116;27;20552;-68
2024/01/16 05:25:52;;;;;;;1.90;1.77;;;;;;;1.64;nan;98276.41;5096723;28;20287;-68
2024/01/16 05:28:19;;;;;;;0.93;0.93;;;;;;;1.53;nan;98263.06;5110278;28;20666;-67
2024/01/16 05:30:45;;;;;;;1.03;1.03;;;;;;;1.57;nan;98274.81;5117410;27;20202;-68
2024/01/16 05:33:13;;;;;;;0.87;0.87;;;;;;;1.54;nan;98279.91;5098837;27;20261;-67
2024/01/16 05:35:40;;;;;;;1.80;1.20;;;;;;;1.55;nan;98281.59;5107146;27;20191;-67
2024/01/16 05:38:07;;;;;;;0.90;0.90;;;;;;;1.60;nan;98289.94;5097889;28;20214;-67
2024/01/16 05:40:34;;;;;;;1.10;1.10;;;;;;;1.66;nan;98286.47;5096393;28;20578;-67
2024/01/16 05:43:01;;;;;;;1.00;1.00;;;;;;;1.76;nan;98286.34;5096414;28;20191;-68
2024/01/16 05:45:28;;;;;;;1.67;1.57;;;;;;;1.97;nan;98301.22;5096000;28;20711;-68
2024/01/16 05:47:55;;;;;;;1.10;1.10;;;;;;;2.09;nan;98310.34;5096890;28;20207;-68
2024/01/16 05:50:23;;;;;;;1.00;1.00;;;;;;;2.28;nan;98313.44;5098158;28;20744;-67
2024/01/16 05:52:50;;;;;;;0.80;0.80;;;;;;;2.44;nan;98312.34;5096876;28;20203;-67
2024/01/16 05:55:16;;;;;;;1.10;1.10;;;;;;;2.49;nan;98326.59;5097165;28;20253;-67
2024/01/16 05:57:43;;;;;;;1.10;1.10;;;;;;;2.57;nan;98341.66;5096526;28;20256;-67
2024/01/16 06:00:11;;;;;;;1.10;1.10;;;;;;;2.65;nan;98353.31;5101348;28;20199;-67
2024/01/16 06:02:37;;;;;;;0.80;0.80;;;;;;;2.48;nan;98329.16;5097005;28;20200;-67
2024/01/16 06:05:05;;;;;;;1.23;1.23;;;;;;;2.72;nan;98364.19;5095983;28;20807;-67
2024/01/16 06:07:33;;;;;;;0.70;0.70;;;;;;;2.78;nan;98373.41;5092922;28;20231;-67
2024/01/16 06:10:00;;;;;;;0.90;0.90;;;;;;;2.78;nan;98384.31;5093785;28;20659;-67
2024/01/16 06:12:27;;;;;;;0.90;0.90;;;;;;;2.83;nan;98392.69;5093458;28;20270;-67
2024/01/16 06:14:53;;;;;;;2.20;2.20;;;;;;;2.81;nan;98404.53;5099897;28;20191;-68
2024/01/16 06:17:20;;;;;;;1.70;1.70;;;;;;;2.80;nan;98413.00;5106163;28;20227;-68
2024/01/16 06:19:47;;;;;;;1.50;1.50;;;;;;;2.77;nan;98414.72;5093329;28;20199;-68
2024/01/16 06:22:13;;;;;;;0.90;0.90;;;;;;;2.77;nan;98410.50;5102919;28;20195;-68
2024/01/16 06:24:41;;;;;;;1.70;1.70;;;;;;;2.80;nan;98428.19;5092965;28;20212;-68
2024/01/16 06:27:08;;;;;;;1.20;1.20;;;;;;;2.84;nan;98432.34;5093042;28;20260;-68
2024/01/16 06:29:35;;;;;;;9.17;0.87;;;;;;;2.92;nan;98434.75;5110084;28;20199;-68
2024/01/16 06:32:02;;;;;;;1.13;1.13;;;;;;;2.98;nan;98440.53;5093272;28;20195;-68
2024/01/16 06:34:29;;;;;;;3.23;3.03;;;;;;;3.04;nan;98452.25;5092665;28;20203;-68
2024/01/16 06:36:55;;;;;;;2.00;1.83;;;;;;;3.09;nan;98456.41;5092055;28;20257;-68
2024/01/16 06:39:22;;;;;;;1.17;1.17;;;;;;;3.26;nan;98457.84;5092604;28;20191;-68
2024/01/16 06:41:50;;;;;;;1.50;1.50;;;;;;;3.33;nan;98446.75;5092122;28;20284;-67
2024/01/16 06:44:17;;;;;;;1.13;1.13;;;;;;;3.43;nan;98471.06;5093066;28;20272;-67
2024/01/16 06:46:44;;;;;;;2.20;2.20;;;;;;;3.56;nan;98472.53;5089900;28;20215;-68
2024/01/16 06:49:10;;;;;;;1.67;1.67;;;;;;;3.70;nan;98484.09;5091198;28;20203;-68
2024/01/16 06:51:37;;;;;;;1.13;1.13;;;;;;;3.78;nan;98496.63;5101257;28;20256;-68
2024/01/16 06:54:04;;;;;;;1.53;1.53;;;;;;;3.83;nan;98507.53;5090817;28;20194;-68
2024/01/16 06:56:31;;;;;;;0.70;0.70;;;;;;;3.93;nan;98496.38;5095030;28;20202;-68
2024/01/16 06:58:59;;;;;;;1.23;1.23;;;;;;;4.02;nan;98502.97;5103669;28;20203;-68
2024/01/16 07:01:25;;;;;;;0.90;0.90;;;;;;;4.10;nan;98509.56;5088878;28;20200;-69
2024/01/16 07:03:52;;;;;;;0.67;0.67;;;;;;;4.14;nan;98520.50;5092356;28;20261;-69
2024/01/16 07:06:19;;;;;;;0.90;0.90;;;;;;;4.30;nan;98539.63;5092061;28;20623;-69
2024/01/16 07:08:46;;;;;;;0.70;0.70;;;;;;;4.36;nan;98541.22;5088440;28;20203;-69
2024/01/16 07:11:13;;;;;;;1.00;1.00;;;;;;;4.52;nan;98560.38;5089593;28;20207;-69
2024/01/16 07:13:40;;;;;;;0.90;0.90;;;;;;;4.54;nan;98559.47;5089543;28;20199;-69
2024/01/16 07:16:10;;;;;;;0.60;0.60;;;;;;;4.59;nan;98572.06;5087180;28;20680;-69
2024/01/16 07:18:37;;;;;;;1.70;1.60;;;;;;;4.77;nan;98581.88;5090289;28;20231;-70
2024/01/16 07:21:04;;;;;;;0.90;0.90;;;;;;;4.81;nan;98573.31;5096421;28;20277;-70
2024/01/16 07:23:31;;;;;;;0.83;0.83;;;;;;;4.74;nan;98569.25;5090167;28;20227;-70
2024/01/16 07:25:57;;;;;;;0.70;0.70;;;;;;;4.97;nan;98595.00;5102597;28;20644;-71
2024/01/16 07:28:25;;;;;;;0.63;0.63;;;;;;;5.11;nan;98603.16;5092803;28;20264;-71
2024/01/16 07:30:54;;;;;;;1.17;1.17;;;;;;;5.16;nan;98606.44;5096336;28;20706;-71
2024/01/16 07:33:22;;;;;;;1.10;1.10;;;;;;;5.25;nan;98611.31;5094897;28;20674;-71
2024/01/16 07:35:49;;;;;;;0.77;0.77;;;;;;;5.43;nan;98609.25;5091440;28;20207;-71
2024/01/16 07:38:16;;;;;;;1.63;1.53;;;;;;;5.58;nan;98621.63;5097441;28;20628;-71
2024/01/16 07:40:42;;;;;;;1.50;0.60;;;;;;;5.68;nan;98630.72;5095034;28;20312;-71
2024/01/16 07:43:09;;;;;;;1.00;0.90;;;;;;;5.69;nan;98617.09;5091336;28;20206;-72
2024/01/16 07:45:36;;;;;;;4.53;0.93;;;;;;;5.85;nan;98643.84;5097359;28;20707;-71
2024/01/16 07:48:03;;;;;;;0.80;0.80;;;;;;;5.84;nan;98642.19;5093388;28;20199;-72
2024/01/16 07:50:31;;;;;;;0.93;0.93;;;;;;;5.89;nan;98632.78;5092764;28;20691;-71
2024/01/16 07:52:58;;;;;;;2.93;1.07;;;;;;;6.02;nan;98640.94;5088670;28;20257;-71
2024/01/16 07:55:24;;;;;;;0.80;0.80;;;;;;;6.10;nan;98650.09;5090461;28;20191;-72
2024/01/16 07:57:51;;;;;;;0.70;0.70;;;;;;;6.17;nan;98656.69;5091874;28;20204;-73
2024/01/16 08:00:18;;;;;;;0.60;0.60;;;;;;;6.26;nan;98660.72;5091233;28;20245;-74
2024/01/16 08:02:45;;;;;;;1.80;1.47;;;;;;;6.38;nan;98669.75;5099521;28;20640;-72
2024/01/16 08:05:11;;;;;;;0.63;0.63;;;;;;;6.38;nan;98670.59;5096991;28;20219;-72
2024/01/16 08:07:39;;;;;;;0.70;0.70;;;;;;;6.55;nan;98682.91;5098368;28;20227;-73
2024/01/16 08:10:06;;;;;;;0.70;0.70;;;;;;;6.59;nan;98690.41;5088028;28;20203;-73
2024/01/16 08:12:33;;;;;;;0.43;0.43;;;;;;;6.67;nan;98697.88;5089706;28;20211;-73
2024/01/16 08:14:59;;;;;;;1.00;1.00;;;;;;;6.74;nan;98704.47;5093115;28;20335;-72
2024/01/16 08:17:26;;;;;;;1.13;1.13;;;;;;;6.74;nan;98696.84;5087582;28;20226;-74
2024/01/16 08:19:53;;;;;;;0.70;0.70;;;;;;;6.88;nan;98707.50;5089844;28;20199;-74
2024/01/16 08:22:20;;;;;;;0.63;0.63;;;;;;;6.92;nan;98709.06;5089994;28;20651;-74
2024/01/16 08:24:48;;;;;;;0.60;0.60;;;;;;;6.88;nan;98701.56;5087982;28;20298;-74
2024/01/16 08:27:16;;;;;;;0.70;0.70;;;;;;;7.05;nan;98714.69;5089330;28;20256;-73
2024/01/16 08:29:42;;;;;;;0.67;0.67;;;;;;;7.05;nan;98727.41;5088144;28;20200;-73
2024/01/16 08:32:09;;;;;;;0.50;0.50;;;;;;;7.08;nan;98735.81;5089084;28;20207;-73
2024/01/16 08:34:36;;;;;;;0.70;0.70;;;;;;;7.09;nan;98734.13;5088508;28;20225;-74
2024/01/16 08:37:04;;;;;;;0.90;0.90;;;;;;;7.08;nan;98746.00;5076603;28;20258;-73
2024/01/16 08:39:33;;;;;;;0.77;0.77;;;;;;;7.13;nan;98751.84;5089693;28;20203;-74
2024/01/16 08:42:02;;;;;;;1.50;1.50;;;;;;;7.15;nan;98761.97;5079061;28;20207;-74
2024/01/16 08:44:29;;;;;;;1.00;1.00;;;;;;;7.11;nan;98763.78;5081071;28;20299;-73
2024/01/16 08:46:55;;;;;;;0.63;0.63;;;;;;;7.20;nan;98781.41;5079309;28;20203;-73
2024/01/16 08:49:22;;;;;;;0.53;0.53;;;;;;;7.17;nan;98791.66;5079697;28;20667;-73
2024/01/16 08:51:49;;;;;;;0.80;0.80;;;;;;;7.11;nan;98776.50;5076165;28;20990;-73
2024/01/16 08:54:15;;;;;;;1.37;0.63;;;;;;;7.21;nan;98800.88;5074664;28;20200;-74
2024/01/16 08:56:42;;;;;;;0.80;0.80;;;;;;;7.31;nan;98804.88;5085240;28;20207;-74
2024/01/16 08:59:10;;;;;;;0.80;0.80;;;;;;;7.32;nan;98813.38;5081904;28;20827;-73
2024/01/16 09:01:37;;;;;;;1.13;0.80;;;;;;;7.42;nan;98812.25;5081962;28;20625;-73
2024/01/16 09:04:04;;;;;;;0.90;0.90;;;;;;;7.50;nan;98809.47;5083058;28;20302;-73
2024/01/16 09:06:31;;;;;;;0.77;0.77;;;;;;;7.49;nan;98792.50;5079880;28;20219;-73
2024/01/16 09:08:58;;;;;;;0.70;0.70;;;;;;;7.68;nan;98814.09;5080280;28;20697;-73
2024/01/16 09:11:24;;;;;;;1.00;1.00;;;;;;;7.79;nan;98817.16;5076619;28;20265;-74
2024/01/16 09:13:51;;;;;;;0.50;0.50;;;;;;;7.84;nan;98821.25;5080862;28;20249;-73
2024/01/16 09:16:19;;;;;;;0.73;0.73;;;;;;;7.89;nan;98823.66;5085863;28;20226;-73
2024/01/16 09:18:46;;;;;;;1.07;1.07;;;;;;;7.81;nan;98833.28;5082132;28;20709;-73
2024/01/16 09:21:13;;;;;;;1.60;0.70;;;;;;;7.82;nan;98834.91;5078464;28;20637;-73
2024/01/16 09:23:40;;;;;;;0.90;0.90;;;;;;;7.81;nan;98840.94;5077349;28;20212;-73
2024/01/16 09:26:07;;;;;;;0.63;0.63;;;;;;;7.83;nan;98840.00;5079495;28;20219;-73
2024/01/16 09:28:33;;;;;;;1.13;1.13;;;;;;;7.89;nan;98849.19;5075883;28;20254;-73
2024/01/16 09:31:00;;;;;;;0.80;0.80;;;;;;;7.93;nan;98841.41;5078231;28;20207;-73
2024/01/16 09:33:28;;;;;;;0.70;0.70;;;;;;;7.96;nan;98848.13;5078641;28;20204;-74
2024/01/16 09:35:55;;;;;;;0.90;0.90;;;;;;;7.96;nan;98855.78;5087433;28;20680;-73
2024/01/16 09:38:22;;;;;;;0.60;0.60;;;;;;;7.96;nan;98854.94;5088024;28;20227;-73
2024/01/16 09:40:50;;;;;;;0.60;0.60;;;;;;;7.97;nan;98859.19;5079345;28;20204;-73
2024/01/16 09:43:17;;;;;;;0.77;0.77;;;;;;;7.91;nan;98860.22;5093019;28;20192;-74
2024/01/16 09:45:44;;;;;;;1.47;1.47;;;;;;;7.94;nan;98860.13;5093815;28;20268;-73
2024/01/16 09:48:12;;;;;;;0.50;0.50;;;;;;;7.95;nan;98864.31;5111203;28;20202;-73
2024/01/16 09:50:41;;;;;;;0.60;0.60;;;;;;;7.91;nan;98868.72;5114722;28;20194;-73
2024/01/16 09:53:07;;;;;;;0.67;0.67;;;;;;;7.91;nan;98880.63;5092389;28;20199;-73
2024/01/16 09:55:34;;;;;;;0.63;0.63;;;;;;;7.96;nan;98873.66;5093886;28;20256;-74
2024/01/16 09:58:03;;;;;;;0.50;0.50;;;;;;;8.00;nan;98872.69;5093855;28;20675;-74
2024/01/16 10:00:31;;;;;;;0.70;0.70;;;;;;;8.06;nan;98879.34;5096964;28;20195;-73
2024/01/16 10:02:58;;;;;;;0.70;0.60;;;;;;;8.05;nan;98875.09;5092907;28;20649;-74
2024/01/16 10:05:25;;;;;;;0.40;0.40;;;;;;;8.22;nan;98883.13;5093601;28;20219;-73
2024/01/16 10:07:53;;;;;;;0.60;0.60;;;;;;;8.23;nan;98888.22;5104199;28;20199;-73
2024/01/16 10:10:22;;;;;;;0.73;0.73;;;;;;;8.28;nan;98894.03;5093195;28;20203;-73
2024/01/16 10:12:51;;;;;;;0.70;0.70;;;;;;;8.29;nan;98890.63;5101572;28;20230;-73
2024/01/16 10:15:20;;;;;;;0.60;0.60;;;;;;;8.34;nan;98896.41;5110251;28;20257;-72
2024/01/16 10:17:47;;;;;;;0.83;0.57;;;;;;;8.40;nan;98897.97;5092466;28;20589;-74
2024/01/16 10:20:16;;;;;;;0.50;0.50;;;;;;;8.50;nan;98903.66;5092383;28;20210;-73
2024/01/16 10:22:54;;;;;;;0.57;0.57;;;;;;;8.53;nan;98913.75;5093332;28;20603;-73
2024/01/16 10:25:22;;;;;;;0.60;0.60;;;;;;;8.52;nan;98904.41;5093231;28;20272;-72
2024/01/16 10:27:50;;;;;;;0.60;0.60;;;;;;;8.48;nan;98913.03;5093357;28;20202;-73
2024/01/16 10:30:22;;;;;;;0.70;0.70;;;;;;;8.46;nan;98912.28;5092936;28;20199;-73
2024/01/16 10:32:49;;;;;;;0.50;0.50;;;;;;;8.42;nan;98920.03;5103806;28;20199;-72
2024/01/16 10:35:15;;;;;;;0.57;0.57;;;;;;;8.39;nan;98917.56;5096866;28;20332;-72
2024/01/16 10:37:44;;;;;;;0.50;0.50;;;;;;;8.39;nan;98922.66;5088572;28;20249;-72
2024/01/16 10:40:15;;;;;;;0.60;0.60;;;;;;;8.34;nan;98924.50;5090895;28;20643;-73
2024/01/16 10:42:42;;;;;;;0.57;0.57;;;;;;;8.38;nan;98920.97;5093818;27;20203;-73
2024/01/16 10:45:10;;;;;;;1.80;1.07;;;;;;;8.34;nan;98919.38;5090273;28;20571;-73
2024/01/16 10:47:37;;;;;;;0.50;0.50;;;;;;;8.33;nan;98915.19;5092357;28;20253;-72
2024/01/16 10:50:07;;;;;;;0.50;0.50;;;;;;;8.30;nan;98911.88;5090788;28;20207;-73
2024/01/16 10:52:35;;;;;;;0.67;0.67;;;;;;;8.11;nan;98880.88;5086803;28;20199;-72
2024/01/16 10:55:04;;;;;;;3.33;0.97;;;;;;;8.34;nan;98908.34;5089966;28;20227;-72
2024/01/16 10:57:34;;;;;;;0.50;0.50;;;;;;;8.43;nan;98908.91;5087771;28;20215;-73
2024/01/16 11:00:07;;;;;;;0.60;0.60;;;;;;;8.44;nan;98910.59;5089845;28;20671;-72
2024/01/16 11:02:40;;;;;;;0.93;0.93;;;;;;;8.49;nan;98919.84;5089148;28;20687;-72
2024/01/16 11:05:07;;;;;;;0.60;0.60;;;;;;;8.50;nan;98924.88;5088842;28;20290;-71
2024/01/16 11:07:36;;;;;;;0.70;0.70;;;;;;;8.48;nan;98924.09;5090297;28;20273;-73
2024/01/16 11:10:04;;;;;;;0.60;0.60;;;;;;;8.51;nan;98935.94;5090717;28;20199;-72
2024/01/16 11:12:34;;;;;;;0.40;0.40;;;;;;;8.43;nan;98923.41;5089659;28;20211;-72
2024/01/16 11:15:07;;;;;;;0.70;0.70;;;;;;;8.45;nan;98931.84;5086296;28;20211;-72
2024/01/16 11:17:35;;;;;;;0.70;0.70;;;;;;;8.51;nan;98941.06;5089082;28;20203;-72
2024/01/16 11:20:09;;;;;;;0.60;0.60;;;;;;;8.53;nan;98945.22;5092774;28;20199;-72
2024/01/16 11:22:38;;;;;;;1.00;1.00;;;;;;;8.59;nan;98945.06;5090759;28;20664;-72
2024/01/16 11:25:15;;;;;;;0.60;0.60;;;;;;;8.65;nan;98947.44;5091451;28;20206;-73
2024/01/16 11:27:44;;;;;;;0.67;0.67;;;;;;;8.66;nan;98951.66;5091959;28;20222;-71
2024/01/16 11:30:12;;;;;;;0.67;0.67;;;;;;;8.70;nan;98952.41;5096701;28;20253;-71
2024/01/16 11:32:40;;;;;;;0.67;0.53;;;;;;;8.73;nan;98949.75;5105891;28;20667;-72
2024/01/16 11:35:08;;;;;;;0.60;0.60;;;;;;;8.76;nan;98949.66;5096098;28;20199;-71
2024/01/16 11:37:37;;;;;;;0.47;0.47;;;;;;;8.80;nan;98949.53;5096961;28;20256;-71
2024/01/16 11:40:25;;;;;;;0.70;0.70;;;;;;;8.74;nan;98936.09;5092811;28;20203;-70
2024/01/16 11:42:54;;;;;;;0.60;0.60;;;;;;;8.88;nan;98942.50;5097091;28;20298;-71
2024/01/16 11:45:50;;;;;;;0.90;0.90;;;;;;;8.89;nan;98948.41;5093721;28;20203;-70
2024/01/16 11:48:18;;;;;;;1.70;1.67;;;;;;;8.79;nan;98941.91;5093345;28;20200;-72
2024/01/16 11:50:45;;;;;;;0.60;0.60;;;;;;;8.91;nan;98956.88;5095742;28;20268;-71
2024/01/16 11:53:11;;;;;;;0.50;0.50;;;;;;;8.92;nan;98963.66;5091228;28;20196;-72
2024/01/16 11:56:09;;;;;;;0.67;0.50;;;;;;;8.99;nan;98970.25;5091299;28;20207;-71
2024/01/16 11:58:49;;;;;;;0.77;0.77;;;;;;;8.96;nan;98965.25;5103731;28;20549;-69
2024/01/16 12:01:19;;;;;;;0.53;0.53;;;;;;;9.04;nan;98983.75;5097265;28;20240;-71